ADDS METAR Data INFO
IDs: Format: Raw Decoded Include TAF

Data at: 0318 UTC 20 Jul 2018

KAVL 200254Z AUTO 15004KT 10SM FEW055 OVC075 21/19 A3012 RMK AO2 SLP176 T02110189 53005 $
KAVL 200154Z 34005KT 10SM SCT044 BKN070 21/19 A3012 RMK AO2 SLP175 T02110189 $
KAVL 200054Z 00000KT 10SM SCT044 BKN060 BKN100 22/19 A3011 RMK AO2 SLP170 T02220189 $
KAVL 192354Z 22003KT 10SM BKN041 OVC090 23/18 A3011 RMK AO2 SLP170 T02280183 10239 20222 53001 $
KAVL 192254Z 25004KT 10SM SCT037 OVC080 23/18 A3010 RMK AO2 SLP167 T02280183 $
KAVL 192154Z 24004KT 10SM BKN060 OVC075 23/18 A3010 RMK AO2 SLP169 T02280183 $
KAVL 192054Z 22005KT 10SM OVC070 23/17 A3010 RMK AO2 SLP170 T02330167 58009 $
KAVL 191954Z VRB05KT 10SM BKN050 OVC060 23/16 A3012 RMK AO2 SLP175 T02330156 $
KAVL 191921Z 16004KT 10SM SCT028 BKN048 OVC065 23/17 A3013 RMK AO2 T02330167 $
KAVL 191854Z 14007KT 10SM BKN027 OVC048 23/17 A3013 RMK AO2 SLP178 T02330172 $
KAVL 191812Z VRB03KT 10SM OVC017 23/18 A3014 RMK AO2 T02280178 $
KAVL 191754Z VRB03KT 10SM 22/18 A3013 RMK AO2 SLP180 T02220178 10228 20206 $
KAVL 191654Z 12004KT 10SM OVC020 22/18 A3015 RMK AO2 SLP183 T02220178
KAVL 191554Z 10003KT 10SM OVC020 22/17 A3015 RMK AO2 SLP185 T02170172
KAVL 191454Z VRB04KT 10SM OVC022 22/17 A3015 RMK AO2 SLP182 T02170172 51010
KAVL 191354Z 00000KT 10SM OVC027 23/17 A3014 RMK AO2 SLP178 T02280167
KAVL 191254Z 23003KT 10SM BKN019 OVC031 21/18 A3013 RMK AO2 SLP175 T02110178
KAVL 191154Z 00000KT 10SM OVC019 20/18 A3012 RMK AO2 SLP170 T02000178 10211 20183 53016
KAVL 191054Z 00000KT 10SM BKN022 BKN028 OVC035 20/17 A3010 RMK AO2 SLP162 T02000172
KAVL 190954Z AUTO 00000KT 10SM BKN023 19/17 A3008 RMK AO2 SLP155 T01890172
KAVL 190932Z AUTO 00000KT 10SM SCT022 19/17 A3007 RMK AO2 T01890172
KAVL 190902Z AUTO 00000KT 10SM BKN022 18/17 A3007 RMK AO2 T01830172
KAVL 190854Z AUTO 21003KT 10SM SCT023 19/17 A3007 RMK AO2 SLP151 T01890172 55004
KAVL 190754Z AUTO 00000KT 10SM CLR 19/17 A3006 RMK AO2 SLP151 T01940167
KAVL 190654Z AUTO 31004KT 10SM BKN060 20/17 A3006 RMK AO2 SLP150 T02000167
KAVL 190554Z AUTO 00000KT 10SM SCT045 BKN060 OVC080 21/17 A3008 RMK AO2 SLP154 T02110172 10267 20206 50004
KAVL 190454Z AUTO 00000KT 10SM FEW041 BKN049 BKN070 21/17 A3008 RMK AO2 SLP157 T02060172 403000206
KAVL 190354Z AUTO 00000KT 10SM SCT038 BKN050 22/17 A3008 RMK AO2 SLP154 T02170172
KAVL 190254Z AUTO 34004KT 10SM FEW043 SCT070 23/15 A3006 RMK AO2 SLP149 T02330150 53010
KAVL 190154Z 36007KT 10SM BKN065 24/14 A3005 RMK AO2 SLP145 T02440144
KAVL 190054Z 34009KT 10SM BKN060 24/15 A3004 RMK AO2 SLP142 T02440150
KAVL 182354Z 33010KT 10SM FEW060 27/14 A3003 RMK AO2 SLP140 T02670144 10300 20267 53004
KAVL 182254Z 32010KT 10SM CLR 28/14 A3001 RMK AO2 LTG DSNT SW SLP132 T02830144
KAVL 182154Z 34009KT 10SM CLR 29/13 A3001 RMK AO2 SLP132 T02940128
KAVL 182054Z 34010G16KT 10SM FEW065 29/14 A3002 RMK AO2 SLP134 T02940139 58011
KAVL 181954Z 33009KT 10SM BKN065 BKN085 28/14 A3003 RMK AO2 SLP138 T02830139
KAVL 181854Z 33009KT 10SM SCT065 BKN080 29/14 A3004 RMK AO2 SLP143 T02890144
KAVL 181754Z 34007KT 10SM CLR 29/13 A3005 RMK AO2 SLP146 T02940133 10294 20222 58013
KAVL 181654Z 34011KT 10SM CLR 29/14 A3007 RMK AO2 SLP151 T02890144
KAVL 181554Z 35009KT 10SM CLR 28/17 A3008 RMK AO2 SLP156 T02780172